createdAt,value
2024-02-08T00:00:33.796Z,0.00
2024-02-08T00:01:33.937Z,0.00
2024-02-08T00:02:33.801Z,0.00
2024-02-08T00:03:33.808Z,0.00
2024-02-08T00:04:33.833Z,0.00
2024-02-08T00:05:33.966Z,0.00
2024-02-08T00:06:33.862Z,0.00
2024-02-08T00:07:33.836Z,0.00
2024-02-08T00:08:33.795Z,0.00
2024-02-08T00:09:33.796Z,0.00
2024-02-08T00:10:33.804Z,0.00
2024-02-08T00:11:33.801Z,0.00
2024-02-08T00:12:33.797Z,0.00
2024-02-08T00:13:33.875Z,0.00
2024-02-08T00:14:33.805Z,0.00
2024-02-08T00:15:33.795Z,0.00
2024-02-08T00:16:33.830Z,0.00
2024-02-08T00:17:33.805Z,0.00
2024-02-08T00:18:33.923Z,0.00
2024-02-08T00:19:33.836Z,0.00
2024-02-08T00:20:33.862Z,0.00
2024-02-08T00:21:33.817Z,0.00
2024-02-08T00:22:33.812Z,0.00
2024-02-08T00:23:33.830Z,0.00
2024-02-08T00:24:33.819Z,0.00
2024-02-08T00:25:33.828Z,0.00
2024-02-08T00:26:33.796Z,0.00
2024-02-08T00:27:33.814Z,0.00
2024-02-08T00:28:33.824Z,0.00
2024-02-08T00:29:33.795Z,0.00
2024-02-08T00:30:33.797Z,0.00
2024-02-08T00:31:33.908Z,0.00
2024-02-08T00:32:33.829Z,0.00
2024-02-08T00:33:33.965Z,0.00
2024-02-08T00:34:33.852Z,0.00
2024-02-08T00:35:33.843Z,0.00
2024-02-08T00:36:33.813Z,0.00
2024-02-08T00:37:33.814Z,0.00
2024-02-08T00:38:33.990Z,0.00
2024-02-08T00:39:33.795Z,0.00
2024-02-08T00:40:33.866Z,0.00
2024-02-08T00:41:33.798Z,0.00
2024-02-08T00:42:33.802Z,0.00
2024-02-08T00:43:33.896Z,0.00
2024-02-08T00:44:33.796Z,0.00
2024-02-08T00:45:33.799Z,0.00
2024-02-08T00:46:33.813Z,0.00
2024-02-08T00:47:33.823Z,0.00
2024-02-08T00:48:33.831Z,0.00
2024-02-08T00:49:33.813Z,0.00
2024-02-08T00:50:33.814Z,0.00
2024-02-08T00:51:33.800Z,0.00
2024-02-08T00:52:33.925Z,0.00
2024-02-08T00:53:33.831Z,0.00
2024-02-08T00:54:33.795Z,0.00
2024-02-08T00:55:33.806Z,0.00
2024-02-08T00:56:33.807Z,0.00
2024-02-08T00:57:34.190Z,0.00
2024-02-08T00:58:33.870Z,0.00
2024-02-08T00:59:33.794Z,0.00
2024-02-08T01:00:33.846Z,0.00
2024-02-08T01:01:33.811Z,0.00
2024-02-08T01:02:33.789Z,0.00
2024-02-08T01:03:33.870Z,0.00
2024-02-08T01:04:33.807Z,0.00
2024-02-08T01:05:33.898Z,0.00
2024-02-08T01:06:33.814Z,0.00
2024-02-08T01:07:33.848Z,0.00
2024-02-08T01:08:33.792Z,0.00
2024-02-08T01:09:33.797Z,0.00
2024-02-08T01:10:33.838Z,0.00
2024-02-08T01:11:33.789Z,0.00
2024-02-08T01:12:33.795Z,0.00
2024-02-08T01:13:33.958Z,0.00
2024-02-08T01:14:33.804Z,0.00
2024-02-08T01:15:33.797Z,0.00
2024-02-08T01:16:33.807Z,0.00
2024-02-08T01:17:34.015Z,0.00
2024-02-08T01:18:33.838Z,0.00
2024-02-08T01:19:33.815Z,0.00
2024-02-08T01:20:33.820Z,0.00
2024-02-08T01:21:33.787Z,0.00
2024-02-08T01:22:33.814Z,0.00
2024-02-08T01:23:33.788Z,0.00
2024-02-08T01:24:33.800Z,0.00
2024-02-08T01:25:33.859Z,0.00
2024-02-08T01:26:33.786Z,0.00
2024-02-08T01:27:33.788Z,0.00
2024-02-08T01:28:33.812Z,0.00
2024-02-08T01:29:33.793Z,0.00
2024-02-08T01:30:33.786Z,0.00
2024-02-08T01:31:33.793Z,0.00
2024-02-08T01:32:33.815Z,0.00
2024-02-08T01:33:33.852Z,0.00
2024-02-08T01:34:33.890Z,0.00
2024-02-08T01:35:33.806Z,0.00
2024-02-08T01:36:33.783Z,0.00
2024-02-08T01:37:33.845Z,0.00
2024-02-08T01:38:33.782Z,0.00
2024-02-08T01:39:33.785Z,0.00
2024-02-08T01:40:33.795Z,0.00
2024-02-08T01:41:33.788Z,0.00
2024-02-08T01:42:33.783Z,0.00
2024-02-08T01:43:33.849Z,0.00
2024-02-08T01:44:33.785Z,0.00
2024-02-08T01:45:33.791Z,0.00
2024-02-08T01:46:33.801Z,0.00
2024-02-08T01:47:33.836Z,0.00
2024-02-08T01:48:33.925Z,0.00
2024-02-08T01:49:33.830Z,0.00
2024-02-08T01:50:33.785Z,0.00
2024-02-08T01:51:33.785Z,0.00
2024-02-08T01:52:33.821Z,0.00
2024-02-08T01:53:33.919Z,0.00
2024-02-08T01:54:33.796Z,0.00
2024-02-08T01:55:33.802Z,0.00
2024-02-08T01:56:33.781Z,0.00
2024-02-08T01:57:33.798Z,0.00
2024-02-08T01:58:33.796Z,0.00
2024-02-08T01:59:33.797Z,0.00
2024-02-08T02:00:35.390Z,0.00
2024-02-08T02:01:33.793Z,0.00
2024-02-08T02:02:33.784Z,0.00
2024-02-08T02:03:33.842Z,0.00
2024-02-08T02:04:33.834Z,0.00
2024-02-08T02:05:33.779Z,0.00
2024-02-08T02:06:33.824Z,0.00
2024-02-08T02:07:33.784Z,0.00
2024-02-08T02:08:33.776Z,0.00
2024-02-08T02:09:33.798Z,0.00
2024-02-08T02:10:33.798Z,0.00
2024-02-08T02:11:33.815Z,0.00
2024-02-08T02:12:33.794Z,0.00
2024-02-08T02:13:33.873Z,0.00
2024-02-08T02:14:33.777Z,0.00
2024-02-08T02:15:33.784Z,0.00
2024-02-08T02:16:33.799Z,0.00
2024-02-08T02:17:33.798Z,0.00
2024-02-08T02:18:33.836Z,0.00
2024-02-08T02:19:33.799Z,0.00
2024-02-08T02:20:33.780Z,0.00
2024-02-08T02:21:33.772Z,0.00
2024-02-08T02:22:33.785Z,0.00
2024-02-08T02:23:33.777Z,0.00
2024-02-08T02:24:33.793Z,0.00
2024-02-08T02:25:33.911Z,0.00
2024-02-08T02:26:33.944Z,0.00
2024-02-08T02:27:33.779Z,0.00
2024-02-08T02:28:33.784Z,0.00
2024-02-08T02:29:33.775Z,0.00
2024-02-08T02:30:33.776Z,0.00
2024-02-08T02:31:34.053Z,0.00
2024-02-08T02:32:33.828Z,0.00
2024-02-08T02:33:33.976Z,0.00
2024-02-08T02:34:33.840Z,0.00
2024-02-08T02:35:33.769Z,0.00
2024-02-08T02:36:33.768Z,0.00
2024-02-08T02:37:33.805Z,0.00
2024-02-08T02:38:33.768Z,0.00
2024-02-08T02:39:33.791Z,0.00
2024-02-08T02:40:33.798Z,0.00
2024-02-08T02:41:33.768Z,0.00
2024-02-08T02:42:33.766Z,0.00
2024-02-08T02:43:33.826Z,0.00
2024-02-08T02:44:33.775Z,0.00
2024-02-08T02:45:33.785Z,0.00
2024-02-08T02:46:33.773Z,0.00
2024-02-08T02:47:33.829Z,0.00
2024-02-08T02:48:33.815Z,0.00
2024-02-08T02:49:33.790Z,0.00
2024-02-08T02:50:33.815Z,0.00
2024-02-08T02:51:33.767Z,0.00
2024-02-08T02:52:33.788Z,0.00
2024-02-08T02:53:33.764Z,0.00
2024-02-08T02:54:33.760Z,0.00
2024-02-08T02:55:33.787Z,0.00
2024-02-08T02:56:33.764Z,0.00
2024-02-08T02:57:33.765Z,0.00
2024-02-08T02:58:33.792Z,0.00
2024-02-08T02:59:33.777Z,0.00
2024-02-08T03:00:33.760Z,0.00
2024-02-08T03:01:33.852Z,0.00
2024-02-08T03:02:33.786Z,0.00
2024-02-08T03:03:33.848Z,0.00
2024-02-08T03:04:33.790Z,0.00
2024-02-08T03:05:33.759Z,0.00
2024-02-08T03:06:33.755Z,0.00
2024-02-08T03:07:33.848Z,0.00
2024-02-08T03:08:33.821Z,0.00
2024-02-08T03:09:33.766Z,0.00
2024-02-08T03:10:33.831Z,0.00
2024-02-08T03:11:33.756Z,0.00
2024-02-08T03:12:33.756Z,0.00
2024-02-08T03:13:33.818Z,0.00
2024-02-08T03:14:33.752Z,0.00
2024-02-08T03:15:33.757Z,0.00
2024-02-08T03:16:33.768Z,0.00
2024-02-08T03:17:33.918Z,0.00
2024-02-08T03:18:33.783Z,0.00
2024-02-08T03:19:33.821Z,0.00
2024-02-08T03:20:33.749Z,0.00
2024-02-08T03:21:33.774Z,0.00
2024-02-08T03:22:33.752Z,0.00
2024-02-08T03:23:33.794Z,0.00
2024-02-08T03:24:33.753Z,0.00
2024-02-08T03:25:33.757Z,0.00
2024-02-08T03:26:33.751Z,0.00
2024-02-08T03:27:33.748Z,0.00
2024-02-08T03:28:33.800Z,0.00
2024-02-08T03:29:33.759Z,0.00
2024-02-08T03:30:33.763Z,0.00
2024-02-08T03:31:33.812Z,0.00
2024-02-08T03:32:33.771Z,0.00
2024-02-08T03:33:33.813Z,0.00
2024-02-08T03:34:33.814Z,0.00
2024-02-08T03:35:33.848Z,0.00
2024-02-08T03:36:33.756Z,0.00
2024-02-08T03:37:33.789Z,0.00
2024-02-08T03:38:33.745Z,0.00
2024-02-08T03:39:33.745Z,0.00
2024-02-08T03:40:34.090Z,0.00
2024-02-08T03:41:33.744Z,0.00
2024-02-08T03:42:33.755Z,0.00
2024-02-08T03:43:33.880Z,0.00
2024-02-08T03:44:33.741Z,0.00
2024-02-08T03:45:33.743Z,0.00
2024-02-08T03:46:33.753Z,0.00
2024-02-08T03:47:33.826Z,0.00
2024-02-08T03:48:34.124Z,0.00
2024-02-08T03:49:33.830Z,0.00
2024-02-08T03:50:33.735Z,0.00
2024-02-08T03:51:33.739Z,0.00
2024-02-08T03:52:33.769Z,0.00
2024-02-08T03:53:33.791Z,0.00
2024-02-08T03:54:33.745Z,0.00
2024-02-08T03:55:33.938Z,0.00
2024-02-08T03:56:33.737Z,0.00
2024-02-08T03:57:33.750Z,0.00
2024-02-08T03:58:33.763Z,0.00
2024-02-08T03:59:33.747Z,0.00
2024-02-08T04:00:33.735Z,0.00
2024-02-08T04:01:33.921Z,0.00
2024-02-08T04:02:33.749Z,0.00
2024-02-08T04:03:33.833Z,0.00
2024-02-08T04:04:33.761Z,0.00
2024-02-08T04:05:33.771Z,0.00
2024-02-08T04:06:33.734Z,0.00
2024-02-08T04:07:33.775Z,0.00
2024-02-08T04:08:33.747Z,0.00
2024-02-08T04:09:33.744Z,0.00
2024-02-08T04:10:33.750Z,0.00
2024-02-08T04:11:33.731Z,0.00
2024-02-08T04:12:33.732Z,0.00
2024-02-08T04:13:33.803Z,0.00
2024-02-08T04:14:33.730Z,0.00
2024-02-08T04:15:33.734Z,0.00
2024-02-08T04:16:33.761Z,0.00
2024-02-08T04:17:33.765Z,0.00
2024-02-08T04:18:33.829Z,0.00
2024-02-08T04:19:33.744Z,0.00
2024-02-08T04:20:33.726Z,0.00
2024-02-08T04:21:33.752Z,0.00
2024-02-08T04:22:33.753Z,0.00
2024-02-08T04:23:34.750Z,0.00
2024-02-08T04:24:33.733Z,0.00
2024-02-08T04:25:33.781Z,0.00
2024-02-08T04:26:33.754Z,0.00
2024-02-08T04:27:33.727Z,0.00
2024-02-08T04:28:33.756Z,0.00
2024-02-08T04:29:33.723Z,0.00
2024-02-08T04:30:33.735Z,0.00
2024-02-08T04:31:33.747Z,0.00
2024-02-08T04:32:33.829Z,0.00
2024-02-08T04:33:33.943Z,0.00
2024-02-08T04:34:33.737Z,0.00
2024-02-08T04:35:33.751Z,0.00
2024-02-08T04:36:33.721Z,0.00
2024-02-08T04:37:33.774Z,0.00
2024-02-08T04:38:33.718Z,0.00
2024-02-08T04:39:33.742Z,0.00
2024-02-08T04:40:34.055Z,0.00
2024-02-08T04:41:33.728Z,0.00
2024-02-08T04:42:33.723Z,0.00
2024-02-08T04:43:33.763Z,0.00
2024-02-08T04:44:33.715Z,0.00
2024-02-08T04:45:33.730Z,0.00
2024-02-08T04:46:33.737Z,0.00
2024-02-08T04:47:33.728Z,0.00
2024-02-08T04:48:33.736Z,0.00
2024-02-08T04:49:34.086Z,0.00
2024-02-08T04:50:33.715Z,0.00
2024-02-08T04:51:33.723Z,0.00
2024-02-08T04:52:33.736Z,0.00
2024-02-08T04:53:33.727Z,0.00
2024-02-08T04:54:33.721Z,0.00
2024-02-08T04:55:33.758Z,0.00
2024-02-08T04:56:33.716Z,0.00
2024-02-08T04:57:33.712Z,0.00
2024-02-08T04:58:57.190Z,0.00
2024-02-08T04:59:33.763Z,0.00
2024-02-08T05:00:33.737Z,0.00
2024-02-08T05:01:33.719Z,0.00
2024-02-08T05:02:33.719Z,0.00
2024-02-08T05:03:33.749Z,0.00
2024-02-08T05:04:33.760Z,0.00
2024-02-08T05:05:33.781Z,0.00
2024-02-08T05:06:33.724Z,0.00
2024-02-08T05:07:33.790Z,0.00
2024-02-08T05:08:33.716Z,0.00
2024-02-08T05:09:33.715Z,0.00
2024-02-08T05:10:33.925Z,0.00
2024-02-08T05:11:33.723Z,0.00
2024-02-08T05:12:33.734Z,0.00
2024-02-08T05:13:33.718Z,0.00
2024-02-08T05:14:33.709Z,0.00
2024-02-08T05:15:33.720Z,0.00
2024-02-08T05:16:33.998Z,0.00
2024-02-08T05:17:33.744Z,0.00
2024-02-08T05:18:33.727Z,0.00
2024-02-08T05:19:33.736Z,0.00
2024-02-08T05:20:33.708Z,0.00
2024-02-08T05:21:33.715Z,0.00
2024-02-08T05:22:33.805Z,0.00
2024-02-08T05:23:33.714Z,0.00
2024-02-08T05:24:33.708Z,0.00
2024-02-08T05:25:33.726Z,0.00
2024-02-08T05:26:34.009Z,0.00
2024-02-08T05:27:33.711Z,0.00
2024-02-08T05:28:33.739Z,0.00
2024-02-08T05:29:33.715Z,0.00
2024-02-08T05:30:33.708Z,0.00
2024-02-08T05:31:33.790Z,0.00
2024-02-08T05:32:33.759Z,0.00
2024-02-08T05:33:33.751Z,0.00
2024-02-08T05:34:33.746Z,0.00
2024-02-08T05:35:33.833Z,0.00
2024-02-08T05:36:33.708Z,0.00
2024-02-08T05:37:33.734Z,0.00
2024-02-08T05:38:33.703Z,0.00
2024-02-08T05:39:33.719Z,0.00
2024-02-08T05:40:33.756Z,0.00
2024-02-08T05:41:33.724Z,0.00
2024-02-08T05:42:33.709Z,0.00
2024-02-08T05:43:33.703Z,0.00
2024-02-08T05:44:34.306Z,0.00
2024-02-08T05:45:33.714Z,0.00
2024-02-08T05:46:33.763Z,0.00
2024-02-08T05:47:33.713Z,0.00
2024-02-08T05:48:33.744Z,0.00
2024-02-08T05:49:33.817Z,0.00
2024-02-08T05:50:33.707Z,0.00
2024-02-08T05:51:33.731Z,0.00
2024-02-08T05:52:33.750Z,0.00
2024-02-08T05:53:33.749Z,0.00
2024-02-08T05:54:33.701Z,0.00
2024-02-08T05:55:33.744Z,0.00
2024-02-08T05:56:33.703Z,0.00
2024-02-08T05:57:33.707Z,0.00
2024-02-08T05:58:33.754Z,0.00
2024-02-08T05:59:33.718Z,0.00
2024-02-08T06:00:34.081Z,0.00
2024-02-08T06:01:33.802Z,0.00
2024-02-08T06:02:33.703Z,0.00
2024-02-08T06:03:33.731Z,0.00
2024-02-08T06:04:33.815Z,0.00
2024-02-08T06:05:33.712Z,0.00
2024-02-08T06:06:33.701Z,0.00
2024-02-08T06:07:33.962Z,0.00
2024-02-08T06:08:33.782Z,0.00
2024-02-08T06:09:33.701Z,0.00
2024-02-08T06:10:33.762Z,0.00
2024-02-08T06:11:33.698Z,0.00
2024-02-08T06:12:33.705Z,0.00
2024-02-08T06:13:33.812Z,0.00
2024-02-08T06:14:33.697Z,0.00
2024-02-08T06:15:33.704Z,0.00
2024-02-08T06:16:33.743Z,0.00
2024-02-08T06:17:34.049Z,0.00
2024-02-08T06:18:33.710Z,0.00
2024-02-08T06:19:33.792Z,0.00
2024-02-08T06:20:33.706Z,0.00
2024-02-08T06:21:33.700Z,0.00
2024-02-08T06:22:33.737Z,0.00
2024-02-08T06:23:33.700Z,0.00
2024-02-08T06:24:33.944Z,0.00
2024-02-08T06:25:33.850Z,0.00
2024-02-08T06:26:33.704Z,0.00
2024-02-08T06:27:33.695Z,0.00
2024-02-08T06:28:33.741Z,0.00
2024-02-08T06:29:33.719Z,0.00
2024-02-08T06:30:33.705Z,0.00
2024-02-08T06:31:36.728Z,0.00
2024-02-08T06:32:33.731Z,0.00
2024-02-08T06:33:33.803Z,0.00
2024-02-08T06:34:33.731Z,0.00
2024-02-08T06:35:33.706Z,0.00
2024-02-08T06:36:33.712Z,0.00
2024-02-08T06:37:33.754Z,0.00
2024-02-08T06:38:33.695Z,0.00
2024-02-08T06:39:35.838Z,0.00
2024-02-08T06:40:33.718Z,0.00
2024-02-08T06:41:33.696Z,0.00
2024-02-08T06:42:33.699Z,0.00
2024-02-08T06:43:33.728Z,0.00
2024-02-08T06:44:33.696Z,0.00
2024-02-08T06:45:33.691Z,4.00
2024-02-08T06:46:33.730Z,4.00
2024-02-08T06:47:33.704Z,0.00
2024-02-08T06:48:33.772Z,0.00
2024-02-08T06:49:33.822Z,0.00
2024-02-08T06:50:33.695Z,0.00
2024-02-08T06:51:33.707Z,0.00
2024-02-08T06:52:33.699Z,0.00
2024-02-08T06:53:36.313Z,4.00
2024-02-08T06:54:33.700Z,0.00
2024-02-08T06:55:33.735Z,0.00
2024-02-08T06:56:33.693Z,0.00
2024-02-08T06:57:33.696Z,4.00
2024-02-08T06:58:33.724Z,0.00
2024-02-08T06:59:33.714Z,0.00
2024-02-08T07:00:33.706Z,4.00
2024-02-08T07:01:33.748Z,4.00
2024-02-08T07:02:33.701Z,0.00
2024-02-08T07:03:33.808Z,4.00
2024-02-08T07:04:33.815Z,4.00
2024-02-08T07:05:33.695Z,4.00
2024-02-08T07:06:33.718Z,4.00
2024-02-08T07:07:33.747Z,4.00
2024-02-08T07:08:33.694Z,4.00
2024-02-08T07:09:33.690Z,4.00
2024-02-08T07:10:33.878Z,4.00
2024-02-08T07:11:33.693Z,4.00
2024-02-08T07:12:33.694Z,4.00
2024-02-08T07:13:33.814Z,4.00
2024-02-08T07:14:33.721Z,4.00
2024-02-08T07:15:33.692Z,4.00
2024-02-08T07:16:33.720Z,4.00
2024-02-08T07:17:33.722Z,4.00
2024-02-08T07:18:33.753Z,4.00
2024-02-08T07:19:33.733Z,4.00
2024-02-08T07:20:33.889Z,4.00
2024-02-08T07:21:33.693Z,4.00
2024-02-08T07:22:33.773Z,4.00
2024-02-08T07:23:33.691Z,4.00
2024-02-08T07:24:33.692Z,4.00
2024-02-08T07:25:33.801Z,8.00
2024-02-08T07:26:33.692Z,4.00
2024-02-08T07:27:33.689Z,8.00
2024-02-08T07:28:33.756Z,4.00
2024-02-08T07:29:33.685Z,4.00
2024-02-08T07:30:33.693Z,4.00
2024-02-08T07:31:33.713Z,8.00
2024-02-08T07:32:33.691Z,4.00
2024-02-08T07:33:33.778Z,8.00
2024-02-08T07:34:33.889Z,8.00
2024-02-08T07:35:33.687Z,8.00
2024-02-08T07:36:33.694Z,8.00
2024-02-08T07:37:33.730Z,8.00
2024-02-08T07:38:33.690Z,8.00
2024-02-08T07:39:33.692Z,8.00
2024-02-08T07:40:33.695Z,8.00
2024-02-08T07:41:33.686Z,8.00
2024-02-08T07:42:34.118Z,12.00
2024-02-08T07:43:33.696Z,8.00
2024-02-08T07:44:37.191Z,12.00
2024-02-08T07:45:33.688Z,12.00
2024-02-08T07:46:33.778Z,12.00
2024-02-08T07:47:33.726Z,12.00
2024-02-08T07:48:33.721Z,12.00
2024-02-08T07:49:33.827Z,12.00
2024-02-08T07:50:33.693Z,12.00
2024-02-08T07:51:33.687Z,12.00
2024-02-08T07:52:33.729Z,12.00
2024-02-08T07:53:33.724Z,16.00
2024-02-08T07:54:33.690Z,16.00
2024-02-08T07:55:33.717Z,12.00
2024-02-08T07:56:33.691Z,16.00
2024-02-08T07:57:33.690Z,16.00
2024-02-08T07:58:33.770Z,16.00
2024-02-08T07:59:33.688Z,16.00
2024-02-08T08:00:33.703Z,16.00
2024-02-08T08:01:34.230Z,20.00
2024-02-08T08:02:33.686Z,20.00
2024-02-08T08:03:33.739Z,20.00
2024-02-08T08:04:33.833Z,24.00
2024-02-08T08:05:33.775Z,24.00
2024-02-08T08:06:33.792Z,24.00
2024-02-08T08:07:33.742Z,20.00
2024-02-08T08:08:33.791Z,20.00
2024-02-08T08:09:33.692Z,24.00
2024-02-08T08:10:33.756Z,24.00
2024-02-08T08:11:33.725Z,24.00
2024-02-08T08:12:33.713Z,20.00
2024-02-08T08:13:33.839Z,24.00
2024-02-08T08:14:33.704Z,20.00
2024-02-08T08:15:33.689Z,24.00
2024-02-08T08:16:33.808Z,20.00
2024-02-08T08:17:33.756Z,20.00
2024-02-08T08:18:36.201Z,20.00
2024-02-08T08:19:33.827Z,20.00
2024-02-08T08:20:33.695Z,20.00
2024-02-08T08:21:33.695Z,24.00
2024-02-08T08:22:33.934Z,20.00
2024-02-08T08:23:33.688Z,24.00
2024-02-08T08:24:33.693Z,24.00
2024-02-08T08:25:33.779Z,24.00
2024-02-08T08:26:33.706Z,24.00
2024-02-08T08:27:33.778Z,24.00
2024-02-08T08:28:33.769Z,28.00
2024-02-08T08:29:33.690Z,28.00
2024-02-08T08:30:34.060Z,24.00
2024-02-08T08:31:33.764Z,28.00
2024-02-08T08:32:34.169Z,28.00
2024-02-08T08:33:33.773Z,28.00
2024-02-08T08:34:33.755Z,28.00
2024-02-08T08:35:33.786Z,28.00
2024-02-08T08:36:33.714Z,28.00
2024-02-08T08:37:33.757Z,28.00
2024-02-08T08:38:33.702Z,28.00
2024-02-08T08:39:33.695Z,32.00
2024-02-08T08:40:33.834Z,32.00
2024-02-08T08:41:33.838Z,32.00
2024-02-08T08:42:33.748Z,32.00
2024-02-08T08:43:33.803Z,28.00
2024-02-08T08:44:33.729Z,32.00
2024-02-08T08:45:33.787Z,32.00
2024-02-08T08:46:33.854Z,32.00
2024-02-08T08:47:33.749Z,32.00
2024-02-08T08:48:34.113Z,28.00
2024-02-08T08:49:33.785Z,32.00
2024-02-08T08:50:33.708Z,28.00
2024-02-08T08:51:33.826Z,28.00
2024-02-08T08:52:33.949Z,32.00
2024-02-08T08:53:33.720Z,28.00
2024-02-08T08:54:33.719Z,28.00
2024-02-08T08:55:33.879Z,32.00
2024-02-08T08:56:33.732Z,36.00
2024-02-08T08:57:33.720Z,36.00
2024-02-08T08:58:33.794Z,36.00
2024-02-08T08:59:33.788Z,36.00
2024-02-08T09:00:34.204Z,40.00
2024-02-08T09:01:33.800Z,40.00
2024-02-08T09:02:33.704Z,40.00
2024-02-08T09:03:33.744Z,44.00
2024-02-08T09:04:34.833Z,48.00
2024-02-08T09:05:33.874Z,44.00
2024-02-08T09:06:33.941Z,48.00
2024-02-08T09:07:33.780Z,56.00
2024-02-08T09:08:33.746Z,68.00
2024-02-08T09:09:33.705Z,56.00
2024-02-08T09:10:33.762Z,64.00
2024-02-08T09:11:33.711Z,68.00
2024-02-08T09:12:33.709Z,72.00
2024-02-08T09:13:33.771Z,68.00
2024-02-08T09:14:33.979Z,88.00
2024-02-08T09:15:33.759Z,100.00
2024-02-08T09:16:33.825Z,104.00
2024-02-08T09:17:33.741Z,88.00
2024-02-08T09:18:33.826Z,64.00
2024-02-08T09:19:33.834Z,60.00
2024-02-08T09:20:33.752Z,60.00
2024-02-08T09:21:34.166Z,64.00
2024-02-08T09:22:36.229Z,76.00
2024-02-08T09:23:33.756Z,132.00
2024-02-08T09:24:40.327Z,112.00
2024-02-08T09:25:39.804Z,156.00
2024-02-08T09:26:33.712Z,148.00
2024-02-08T09:27:33.715Z,168.00
2024-02-08T09:28:33.868Z,128.00
2024-02-08T09:29:33.712Z,104.00
2024-02-08T09:30:33.722Z,112.00
2024-02-08T09:31:33.808Z,136.00
2024-02-08T09:32:33.768Z,140.00
2024-02-08T09:33:33.773Z,132.00
2024-02-08T09:34:33.829Z,84.00
2024-02-08T09:35:33.832Z,80.00
2024-02-08T09:36:33.716Z,68.00
2024-02-08T09:37:34.014Z,76.00
2024-02-08T09:38:33.825Z,72.00
2024-02-08T09:39:33.721Z,76.00
2024-02-08T09:40:33.745Z,80.00
2024-02-08T09:41:33.719Z,88.00
2024-02-08T09:42:33.724Z,80.00
2024-02-08T09:43:33.835Z,72.00
2024-02-08T09:44:33.723Z,72.00
2024-02-08T09:45:33.737Z,80.00
2024-02-08T09:46:33.823Z,108.00
2024-02-08T09:47:33.738Z,124.00
2024-02-08T09:48:33.742Z,128.00
2024-02-08T09:49:33.780Z,148.00
2024-02-08T09:50:33.731Z,160.00
2024-02-08T09:51:33.726Z,168.00
2024-02-08T09:52:33.842Z,120.00
2024-02-08T09:53:33.731Z,84.00
2024-02-08T09:54:34.153Z,76.00
2024-02-08T09:55:33.965Z,72.00
2024-02-08T09:56:33.731Z,68.00
2024-02-08T09:57:33.783Z,68.00
2024-02-08T09:58:37.706Z,64.00
2024-02-08T09:59:33.733Z,60.00
2024-02-08T10:00:33.736Z,60.00
2024-02-08T10:01:33.850Z,60.00
2024-02-08T10:02:34.489Z,60.00
2024-02-08T10:03:34.013Z,60.00
2024-02-08T10:04:33.814Z,60.00
2024-02-08T10:05:33.744Z,64.00
2024-02-08T10:06:33.790Z,68.00
2024-02-08T10:07:33.766Z,64.00
2024-02-08T10:08:33.788Z,64.00
2024-02-08T10:09:33.765Z,68.00
2024-02-08T10:10:33.811Z,72.00
2024-02-08T10:11:33.761Z,68.00
2024-02-08T10:12:33.749Z,64.00
2024-02-08T10:13:33.946Z,60.00
2024-02-08T10:14:33.758Z,60.00
2024-02-08T10:15:33.760Z,60.00
2024-02-08T10:16:33.783Z,60.00
2024-02-08T10:17:35.359Z,60.00
2024-02-08T10:18:33.798Z,60.00
2024-02-08T10:19:33.859Z,64.00
2024-02-08T10:20:33.776Z,60.00
2024-02-08T10:21:33.761Z,56.00
2024-02-08T10:22:33.843Z,56.00
2024-02-08T10:23:33.765Z,56.00
2024-02-08T10:24:33.763Z,56.00
2024-02-08T10:25:33.985Z,56.00
2024-02-08T10:26:33.768Z,52.00
2024-02-08T10:27:33.774Z,56.00
2024-02-08T10:28:33.788Z,56.00
2024-02-08T10:29:34.316Z,60.00
2024-02-08T10:30:33.781Z,64.00
2024-02-08T10:31:33.866Z,64.00
2024-02-08T10:32:33.797Z,68.00
2024-02-08T10:33:33.836Z,72.00
2024-02-08T10:34:34.078Z,68.00
2024-02-08T10:35:33.784Z,68.00
2024-02-08T10:36:33.780Z,64.00
2024-02-08T10:37:33.823Z,64.00
2024-02-08T10:38:33.825Z,64.00
2024-02-08T10:39:33.897Z,68.00
2024-02-08T10:40:33.967Z,64.00
2024-02-08T10:41:33.789Z,64.00
2024-02-08T10:42:33.789Z,60.00
2024-02-08T10:43:33.861Z,60.00
2024-02-08T10:44:33.796Z,64.00
2024-02-08T10:45:34.380Z,60.00
2024-02-08T10:46:33.933Z,60.00
2024-02-08T10:47:40.719Z,60.00
2024-02-08T10:48:33.896Z,60.00
2024-02-08T10:49:33.903Z,56.00
2024-02-08T10:50:33.899Z,56.00
2024-02-08T10:51:33.805Z,60.00
2024-02-08T10:52:33.894Z,60.00
2024-02-08T10:53:33.965Z,60.00
2024-02-08T10:54:35.953Z,60.00
2024-02-08T10:55:33.893Z,60.00
2024-02-08T10:56:33.818Z,60.00
2024-02-08T10:57:33.815Z,60.00
2024-02-08T10:58:33.846Z,60.00
2024-02-08T10:59:33.819Z,60.00
2024-02-08T11:00:35.756Z,64.00
2024-02-08T11:01:34.409Z,64.00
2024-02-08T11:02:33.847Z,60.00
2024-02-08T11:03:33.818Z,68.00
2024-02-08T11:04:33.870Z,68.00
2024-02-08T11:05:33.896Z,72.00
2024-02-08T11:06:33.926Z,72.00
2024-02-08T11:07:33.895Z,76.00
2024-02-08T11:08:33.834Z,80.00
2024-02-08T11:09:33.830Z,80.00
2024-02-08T11:10:34.384Z,84.00
2024-02-08T11:11:33.833Z,80.00
2024-02-08T11:12:33.845Z,76.00
2024-02-08T11:13:33.975Z,80.00
2024-02-08T11:14:33.837Z,80.00
2024-02-08T11:15:33.841Z,80.00
2024-02-08T11:16:34.068Z,76.00
2024-02-08T11:17:34.261Z,72.00
2024-02-08T11:18:33.928Z,72.00
2024-02-08T11:19:33.920Z,76.00
2024-02-08T11:20:33.963Z,76.00
2024-02-08T11:21:33.860Z,72.00
2024-02-08T11:22:33.884Z,72.00
2024-02-08T11:23:34.030Z,76.00
2024-02-08T11:24:33.854Z,80.00
2024-02-08T11:25:33.998Z,84.00
2024-02-08T11:26:33.880Z,88.00
2024-02-08T11:27:33.871Z,88.00
2024-02-08T11:28:33.967Z,88.00
2024-02-08T11:29:33.885Z,88.00
2024-02-08T11:30:33.877Z,84.00
2024-02-08T11:31:34.209Z,84.00
2024-02-08T11:32:33.964Z,88.00
2024-02-08T11:33:34.357Z,80.00
2024-02-08T11:34:33.970Z,76.00
2024-02-08T11:35:33.922Z,72.00
2024-02-08T11:36:33.882Z,72.00
2024-02-08T11:37:33.940Z,72.00
2024-02-08T11:38:33.897Z,68.00
2024-02-08T11:39:33.890Z,64.00
2024-02-08T11:40:33.980Z,64.00
2024-02-08T11:41:34.011Z,64.00
2024-02-08T11:42:33.918Z,60.00
2024-02-08T11:43:33.903Z,60.00
2024-02-08T11:44:33.901Z,56.00
2024-02-08T11:45:33.897Z,56.00
2024-02-08T11:46:33.954Z,52.00
2024-02-08T11:47:34.024Z,52.00
2024-02-08T11:48:34.090Z,52.00
2024-02-08T11:49:34.409Z,48.00
2024-02-08T11:50:33.908Z,48.00
2024-02-08T11:51:33.910Z,48.00
2024-02-08T11:52:34.007Z,48.00
2024-02-08T11:53:33.955Z,48.00
2024-02-08T11:54:33.916Z,44.00
2024-02-08T11:55:34.018Z,44.00
2024-02-08T11:56:33.934Z,48.00
2024-02-08T11:57:33.924Z,48.00
2024-02-08T11:58:34.032Z,48.00
2024-02-08T11:59:33.927Z,48.00
2024-02-08T12:00:33.923Z,48.00
2024-02-08T12:01:34.074Z,52.00
2024-02-08T12:02:33.946Z,52.00
2024-02-08T12:03:33.935Z,52.00
2024-02-08T12:04:34.020Z,52.00
2024-02-08T12:05:34.058Z,56.00
2024-02-08T12:06:33.967Z,56.00
2024-02-08T12:07:34.145Z,56.00
2024-02-08T12:08:40.501Z,56.00
2024-02-08T12:09:33.950Z,56.00
2024-02-08T12:10:33.977Z,60.00
2024-02-08T12:11:33.951Z,60.00
2024-02-08T12:12:33.953Z,56.00
2024-02-08T12:13:34.162Z,60.00
2024-02-08T12:14:33.971Z,60.00
2024-02-08T12:15:33.971Z,64.00
2024-02-08T12:16:34.046Z,64.00
2024-02-08T12:17:33.998Z,64.00
2024-02-08T12:18:34.080Z,64.00
2024-02-08T12:19:34.081Z,68.00
2024-02-08T12:20:33.969Z,68.00
2024-02-08T12:21:33.973Z,68.00
2024-02-08T12:22:34.127Z,68.00
2024-02-08T12:23:34.323Z,76.00
2024-02-08T12:24:34.751Z,76.00
2024-02-08T12:25:34.065Z,76.00
2024-02-08T12:26:33.983Z,80.00
2024-02-08T12:27:33.992Z,80.00
2024-02-08T12:28:34.113Z,80.00
2024-02-08T12:29:33.994Z,76.00
2024-02-08T12:30:33.990Z,76.00
2024-02-08T12:31:34.169Z,72.00
2024-02-08T12:32:34.041Z,68.00
2024-02-08T12:33:34.121Z,64.00
2024-02-08T12:34:34.540Z,64.00
2024-02-08T12:35:34.008Z,60.00
2024-02-08T12:36:34.007Z,60.00
2024-02-08T12:37:34.040Z,56.00
2024-02-08T12:38:36.499Z,56.00
2024-02-08T12:39:34.015Z,52.00
2024-02-08T12:40:34.312Z,52.00
2024-02-08T12:41:34.020Z,48.00
2024-02-08T12:42:34.022Z,48.00
2024-02-08T12:43:34.086Z,44.00
2024-02-08T12:44:34.027Z,40.00
2024-02-08T12:45:34.036Z,40.00
2024-02-08T12:46:34.213Z,44.00
2024-02-08T12:47:34.066Z,40.00
2024-02-08T12:48:34.131Z,44.00
2024-02-08T12:49:34.165Z,40.00
2024-02-08T12:50:34.188Z,40.00
2024-02-08T12:51:34.063Z,44.00
2024-02-08T12:52:34.100Z,44.00
2024-02-08T12:53:34.056Z,44.00
2024-02-08T12:54:34.049Z,44.00
2024-02-08T12:55:34.156Z,48.00
2024-02-08T12:56:34.057Z,44.00
2024-02-08T12:57:34.069Z,44.00
2024-02-08T12:58:34.100Z,44.00
2024-02-08T12:59:34.063Z,44.00
2024-02-08T13:00:34.086Z,44.00
2024-02-08T13:01:36.841Z,44.00
2024-02-08T13:02:34.104Z,44.00
2024-02-08T13:03:34.078Z,44.00
2024-02-08T13:04:34.144Z,40.00
2024-02-08T13:05:34.186Z,44.00
2024-02-08T13:06:34.159Z,44.00